createdAt,value
2022-12-05T00:03:11.596Z,101974.41
2022-12-05T00:08:13.235Z,101967.84
2022-12-05T00:13:14.832Z,101973.13
2022-12-05T00:18:16.357Z,101976.06
2022-12-05T00:23:17.902Z,101967.09
2022-12-05T00:28:19.356Z,101966.59
2022-12-05T00:33:20.897Z,101970.72
2022-12-05T00:38:22.376Z,101960.72
2022-12-05T00:43:23.911Z,101968.03
2022-12-05T00:48:25.373Z,101969.16
2022-12-05T00:53:26.915Z,101974.47
2022-12-05T00:58:28.452Z,101979.22
2022-12-05T01:03:30.061Z,101964.53
2022-12-05T01:08:32.452Z,101980.19
2022-12-05T01:13:34.342Z,101963.13
2022-12-05T01:18:35.869Z,101964.84
2022-12-05T01:23:37.574Z,101971.09
2022-12-05T01:28:39.756Z,101973.81
2022-12-05T01:33:41.317Z,101971.50
2022-12-05T01:38:43.953Z,101975.53
2022-12-05T01:44:01.442Z,101974.38
2022-12-05T01:49:41.212Z,101983.28
2022-12-05T01:54:44.701Z,101987.59
2022-12-05T01:59:50.457Z,101968.28
2022-12-05T02:05:17.182Z,101975.47
2022-12-05T02:10:19.613Z,101970.22
2022-12-05T02:15:40.572Z,101971.19
2022-12-05T02:20:58.291Z,101975.06
2022-12-05T02:26:18.340Z,101976.97
2022-12-05T02:31:48.061Z,101974.53
2022-12-05T02:37:18.614Z,101964.97
2022-12-05T02:43:04.649Z,101977.06
2022-12-05T02:48:06.908Z,101978.19
2022-12-05T02:53:12.489Z,101979.28
2022-12-05T02:58:27.896Z,101973.00
2022-12-05T03:03:30.604Z,101981.19
2022-12-05T03:08:43.002Z,101987.94
2022-12-05T03:13:52.235Z,101986.88
2022-12-05T03:19:01.542Z,101987.09
2022-12-05T03:24:07.552Z,101988.13
2022-12-05T03:29:36.096Z,101988.13
2022-12-05T03:35:03.538Z,101987.44
2022-12-05T03:40:14.742Z,101996.09
2022-12-05T03:45:20.268Z,101998.81
2022-12-05T03:50:26.208Z,102000.94
2022-12-05T03:55:31.923Z,101995.59
2022-12-05T04:00:36.927Z,102002.44
2022-12-05T04:05:45.049Z,102003.84
2022-12-05T04:10:50.401Z,102007.22
2022-12-05T04:16:16.824Z,101999.22
2022-12-05T04:21:39.146Z,101999.66
2022-12-05T04:26:48.336Z,101999.59
2022-12-05T04:31:56.123Z,102013.56
2022-12-05T04:37:02.133Z,102005.56
2022-12-05T04:42:09.001Z,101995.72
2022-12-05T04:47:14.863Z,101998.19
2022-12-05T04:52:16.328Z,102002.34
2022-12-05T04:57:24.067Z,102004.47
2022-12-05T05:02:37.969Z,101992.41
2022-12-05T05:07:45.223Z,101993.53
2022-12-05T05:12:46.731Z,101987.66
2022-12-05T05:17:48.255Z,101992.19
2022-12-05T05:22:51.416Z,101990.59
2022-12-05T05:27:55.675Z,101995.63
2022-12-05T05:32:59.354Z,101998.88
2022-12-05T05:38:00.815Z,101999.81
2022-12-05T05:43:02.438Z,101992.03
2022-12-05T05:48:04.019Z,101999.06
2022-12-05T05:53:05.468Z,101989.19
2022-12-05T05:58:07.720Z,101995.97
2022-12-05T06:03:09.327Z,101992.19
2022-12-05T06:08:11.028Z,101997.34
2022-12-05T06:13:12.583Z,102001.69
2022-12-05T06:18:14.104Z,102000.53
2022-12-05T06:23:15.618Z,102000.31
2022-12-05T06:28:17.919Z,102002.00
2022-12-05T06:33:19.747Z,101998.88
2022-12-05T06:38:21.268Z,102000.59
2022-12-05T06:43:22.938Z,101992.03
2022-12-05T06:48:27.211Z,101985.34
2022-12-05T06:53:28.763Z,101993.56
2022-12-05T06:58:30.708Z,101997.16
2022-12-05T07:03:32.308Z,101997.34
2022-12-05T07:08:34.237Z,102010.88
2022-12-05T07:13:35.782Z,102020.16
2022-12-05T07:18:37.444Z,102017.66
2022-12-05T07:23:39.605Z,102015.97
2022-12-05T07:28:41.346Z,102024.25
2022-12-05T07:33:43.202Z,102023.50
2022-12-05T07:38:45.611Z,102019.94
2022-12-05T07:43:47.192Z,102019.94
2022-12-05T07:48:50.592Z,102032.47
2022-12-05T07:53:52.255Z,102028.03
2022-12-05T07:58:54.136Z,102026.59
2022-12-05T08:03:58.297Z,102036.88
2022-12-05T08:08:59.833Z,102037.97
2022-12-05T08:14:02.053Z,102036.00
2022-12-05T08:19:07.697Z,102039.47
2022-12-05T08:24:09.368Z,102043.84
2022-12-05T08:29:13.455Z,102048.63
2022-12-05T08:34:17.367Z,102055.78
2022-12-05T08:39:19.844Z,102065.31
2022-12-05T08:44:21.383Z,102064.13
2022-12-05T08:49:22.895Z,102066.63
2022-12-05T08:54:24.436Z,102064.88
2022-12-05T08:59:25.948Z,102065.75
2022-12-05T09:04:27.444Z,102067.72
2022-12-05T09:09:29.385Z,102069.78
2022-12-05T09:14:33.079Z,102085.56
2022-12-05T09:19:34.621Z,102084.06
2022-12-05T09:24:36.134Z,102083.56
2022-12-05T09:29:37.682Z,102089.09
2022-12-05T09:34:39.545Z,102084.31
2022-12-05T09:39:43.932Z,102090.28
2022-12-05T09:45:15.201Z,102095.06
2022-12-05T09:50:16.702Z,102104.94
2022-12-05T09:55:19.679Z,102105.38
2022-12-05T10:00:21.440Z,102100.09
2022-12-05T10:05:35.056Z,102107.66
2022-12-05T10:11:05.169Z,102093.16
2022-12-05T10:16:13.871Z,102090.78
2022-12-05T10:21:27.120Z,102089.38
2022-12-05T10:26:33.314Z,102087.63
2022-12-05T10:31:38.360Z,102087.97
2022-12-05T10:36:42.377Z,102093.28
2022-12-05T10:41:43.854Z,102088.59
2022-12-05T10:46:45.950Z,102092.06
2022-12-05T10:51:49.247Z,102086.63
2022-12-05T10:56:52.760Z,102096.47
2022-12-05T11:01:57.227Z,102078.41
2022-12-05T11:07:04.864Z,102084.69
2022-12-05T11:12:09.148Z,102086.88
2022-12-05T11:17:23.728Z,102086.78
2022-12-05T11:22:33.835Z,102090.66
2022-12-05T11:27:35.329Z,102088.19
2022-12-05T11:32:36.913Z,102088.81
2022-12-05T11:37:58.393Z,102078.19
2022-12-05T11:43:15.060Z,102081.75
2022-12-05T11:48:34.371Z,102077.44
2022-12-05T11:53:55.008Z,102084.63
2022-12-05T11:59:15.110Z,102069.31
2022-12-05T12:04:30.107Z,102068.13
2022-12-05T12:09:49.742Z,102071.69
2022-12-05T12:15:05.296Z,102076.91
2022-12-05T12:20:20.751Z,102077.34
2022-12-05T12:25:22.212Z,102066.19
2022-12-05T12:30:44.902Z,102076.91
2022-12-05T12:36:10.781Z,102071.28
2022-12-05T12:41:46.385Z,102068.03
2022-12-05T12:46:55.939Z,102059.03
2022-12-05T12:52:05.528Z,102058.16
2022-12-05T12:57:23.608Z,102058.69
2022-12-05T13:02:35.345Z,102048.19
2022-12-05T13:07:47.026Z,102039.84
2022-12-05T13:12:49.681Z,102040.94
2022-12-05T13:17:51.702Z,102037.88
2022-12-05T13:22:54.837Z,102032.47
2022-12-05T13:28:02.907Z,102048.63
2022-12-05T13:33:08.587Z,102045.38
2022-12-05T13:38:50.866Z,102042.56
2022-12-05T13:44:05.924Z,102046.78
2022-12-05T13:49:30.174Z,102051.97
2022-12-05T13:54:35.026Z,102045.38
2022-12-05T14:00:19.753Z,102052.19
2022-12-05T14:05:21.323Z,102053.28
2022-12-05T14:10:28.544Z,102053.06
2022-12-05T14:15:36.450Z,102054.78
2022-12-05T14:20:37.751Z,102062.72
2022-12-05T14:26:16.709Z,102064.44
2022-12-05T14:31:23.841Z,102063.66
2022-12-05T14:36:30.835Z,102062.81
2022-12-05T14:41:36.013Z,102052.44
2022-12-05T14:46:37.592Z,102057.41
2022-12-05T14:51:42.047Z,102053.84
2022-12-05T14:56:46.816Z,102065.41
2022-12-05T15:01:55.834Z,102064.66
2022-12-05T15:07:08.793Z,102063.25
2022-12-05T15:12:32.242Z,102075.94
2022-12-05T15:17:46.527Z,102063.88
2022-12-05T15:22:48.036Z,102070.16
2022-12-05T15:28:06.740Z,102073.25
2022-12-05T15:33:12.388Z,102086.66
2022-12-05T15:38:27.857Z,102087.72
2022-12-05T15:43:34.486Z,102089.88
2022-12-05T15:48:36.052Z,102089.22
2022-12-05T15:53:48.938Z,102093.56
2022-12-05T15:59:02.536Z,102093.91
2022-12-05T16:04:14.331Z,102096.84
2022-12-05T16:09:19.957Z,102103.91
2022-12-05T16:14:51.431Z,102103.03
2022-12-05T16:19:45.928Z,102093.06
2022-12-05T16:25:01.104Z,102089.25
2022-12-05T16:30:23.323Z,102087.19
2022-12-05T16:35:42.825Z,102085.56
2022-12-05T16:40:54.641Z,102096.28
2022-12-05T16:46:13.266Z,102088.03
2022-12-05T16:51:21.149Z,102094.44
2022-12-05T16:56:30.693Z,102090.88
2022-12-05T17:01:38.474Z,102087.84
2022-12-05T17:06:40.613Z,102089.88
2022-12-05T17:11:46.036Z,102095.22
2022-12-05T17:16:47.608Z,102099.75
2022-12-05T17:21:49.348Z,102107.88
2022-12-05T17:26:50.927Z,102105.94
2022-12-05T17:31:53.185Z,102107.22
2022-12-05T17:36:54.797Z,102096.38
2022-12-05T17:41:56.283Z,102106.75
2022-12-05T17:47:00.794Z,102107.53
2022-12-05T17:52:21.401Z,102118.94
2022-12-05T17:57:23.513Z,102117.53
2022-12-05T18:02:25.063Z,102125.44
2022-12-05T18:07:26.564Z,102126.19
2022-12-05T18:12:28.662Z,102119.72
2022-12-05T18:17:30.284Z,102136.16
2022-12-05T18:22:31.824Z,102134.44
2022-12-05T18:27:34.795Z,102139.34
2022-12-05T18:32:36.369Z,102149.41
2022-12-05T18:37:38.632Z,102147.78
2022-12-05T18:42:40.192Z,102127.84
2022-12-05T18:47:41.896Z,102145.72
2022-12-05T18:52:43.352Z,102139.75
2022-12-05T18:57:44.972Z,102138.00
2022-12-05T19:02:48.472Z,102133.78
2022-12-05T19:07:53.926Z,102135.63
2022-12-05T19:12:55.998Z,102139.19
2022-12-05T19:17:57.438Z,102139.19
2022-12-05T19:23:01.090Z,102152.53
2022-12-05T19:28:03.097Z,102165.88
2022-12-05T19:33:04.608Z,102155.34
2022-12-05T19:38:06.129Z,102159.69
2022-12-05T19:43:07.612Z,102160.84
2022-12-05T19:48:09.069Z,102164.13
2022-12-05T19:53:12.301Z,102158.81
2022-12-05T19:58:13.801Z,102156.00
2022-12-05T20:03:15.370Z,102164.91
2022-12-05T20:08:16.938Z,102156.47
2022-12-05T20:13:45.359Z,102152.97
2022-12-05T20:18:41.910Z,102153.09
2022-12-05T20:23:43.740Z,102152.88
2022-12-05T20:28:45.691Z,102159.91
2022-12-05T20:33:50.345Z,102161.44
2022-12-05T20:38:59.100Z,102167.63
2022-12-05T20:44:04.201Z,102164.91
2022-12-05T20:49:05.696Z,102161.56
2022-12-05T20:54:07.542Z,102163.28
2022-12-05T20:59:11.768Z,102166.00
2022-12-05T21:04:13.543Z,102160.91
2022-12-05T21:09:18.334Z,102175.09
2022-12-05T21:14:19.979Z,102168.72
2022-12-05T21:19:21.941Z,102174.88
2022-12-05T21:24:23.477Z,102164.03
2022-12-05T21:29:24.969Z,102164.81
2022-12-05T21:34:26.529Z,102159.50
2022-12-05T21:39:28.427Z,102154.19
2022-12-05T21:44:29.928Z,102147.78
2022-12-05T21:49:31.434Z,102153.13
2022-12-05T21:54:32.931Z,102146.59
2022-12-05T21:59:34.518Z,102147.47
2022-12-05T22:04:36.094Z,102151.03
2022-12-05T22:09:37.552Z,102163.63
2022-12-05T22:14:39.205Z,102156.56
2022-12-05T22:19:40.678Z,102158.41
2022-12-05T22:24:42.207Z,102168.50
2022-12-05T22:29:46.348Z,102174.13
2022-12-05T22:34:51.342Z,102163.28
2022-12-05T22:39:52.835Z,102162.00
2022-12-05T22:44:54.287Z,102163.97
2022-12-05T22:49:55.813Z,102165.03
2022-12-05T22:54:57.737Z,102167.19
2022-12-05T22:59:59.646Z,102164.28
2022-12-05T23:05:01.333Z,102159.59
2022-12-05T23:10:03.010Z,102157.09
2022-12-05T23:15:04.904Z,102155.38
2022-12-05T23:20:07.685Z,102147.78
2022-12-05T23:25:09.684Z,102154.16
2022-12-05T23:30:12.054Z,102145.16
2022-12-05T23:35:13.663Z,102145.16
2022-12-05T23:40:16.928Z,102149.16
2022-12-05T23:45:18.467Z,102147.53
2022-12-05T23:50:20.035Z,102147.31
2022-12-05T23:55:21.493Z,102135.63
